Flight Track Log - Related Links

Times and Time Zones

All times are in EDT time to prevent confusion due to time zone crossing. See the EGF3376 flight status page for this flight to view local times or setup timezone preferences in your user account.

Time Position Orientation Groundspeed Altitude Reporting Facility
EDT Latitude Longitude Course Direction KTS MPH feet Rate Location/Type
Thu 09:53:17 PM 32.8667 -97.0333 357° North 167 192 1,900  Level Dallas / Fort Worth TRACON
Thu 09:54:17 PM 32.8167 -97.0167 164° South 219 252 3,800 1,934 Climbing Dallas / Fort Worth TRACON
Thu 09:55:00 PM 32.8596 -96.8000 North  Level FlightAware Approximate
Thu 09:55:18 PM 32.7667 -96.9667 140° Southeast 253 291 5,800  Level Dallas / Fort Worth TRACON
Thu 09:56:00 PM 32.9851 -96.8000 North  Level FlightAware Approximate
Thu 09:56:18 PM 32.7833 -96.8833 77° East 258 297 8,200  Level Dallas / Fort Worth TRACON
Thu 09:57:00 PM 33.1106 -96.8027 357° North  Level FlightAware Approximate
Thu 09:58:00 PM 33.2360 -96.8106 357° North  Level FlightAware Approximate
Thu 09:58:19 PM 32.9114 -96.8592 North 271 312 11,100  Level Fort Worth Center
Thu 09:59:19 PM 33.0011 -96.8536 North 281 323 12,000 800 Climbing Fort Worth Center
Thu 10:00:19 PM 33.0867 -96.8481 North 318 366 12,700 950 Climbing Fort Worth Center
Thu 10:01:19 PM 33.1953 -96.8425 North 347 399 13,900 1,250 Climbing Fort Worth Center
Thu 10:02:19 PM 33.2850 -96.8369 North 353 406 15,200 1,450 Climbing Fort Worth Center
Thu 10:03:19 PM 33.3936 -96.8239 North 353 406 16,800 1,350 Climbing Fort Worth Center
Thu 10:04:19 PM 33.4811 -96.8133 North 353 406 17,900 1,450 Climbing Fort Worth Center
Thu 10:05:19 PM 33.5917 -96.7925 North 358 412 19,700 1,600 Climbing Fort Worth Center
Thu 10:06:19 PM 33.6747 -96.7369 29° Northeast 358 412 21,100 1,400 Climbing Fort Worth Center
Thu 10:07:19 PM 33.7808 -96.6689 28° Northeast 383 441 22,500 1,150 Climbing Fort Worth Center
Thu 10:08:19 PM 33.8681 -96.6106 29° Northeast 395 455 23,400 1,000 Climbing Fort Worth Center
Thu 10:09:19 PM 33.9658 -96.5444 29° Northeast 400 460 24,500 1,050 Climbing Fort Worth Center
Thu 10:10:19 PM 34.0675 -96.4733 30° Northeast 405 466 25,500 1,100 Climbing Fort Worth Center
Thu 10:11:19 PM 34.1733 -96.3994 30° Northeast 405 466 26,700 1,100 Climbing Fort Worth Center
Thu 10:12:19 PM 34.2753 -96.3328 28° Northeast 405 466 27,700 1,000 Climbing Fort Worth Center
Thu 10:13:19 PM 34.3767 -96.2611 30° Northeast 411 473 28,700 1,050 Climbing Fort Worth Center
Thu 10:14:19 PM 34.4783 -96.1892 30° Northeast 411 473 29,800 1,050 Climbing Fort Worth Center
Thu 10:15:19 PM 34.5819 -96.1197 29° Northeast 416 479 30,800 1,050 Climbing Fort Worth Center
Thu 10:16:19 PM 34.6856 -96.0472 30° Northeast 416 479 31,900 1,050 Climbing Fort Worth Center
Thu 10:17:19 PM 34.7869 -95.9775 29° Northeast 416 479 32,900 1,000 Climbing Fort Worth Center
Thu 10:18:19 PM 34.8883 -95.9050 30° Northeast 416 479 33,900 1,000 Climbing Fort Worth Center
Thu 10:19:19 PM 34.9856 -95.8422 28° Northeast 422 486 34,900 1,000 Climbing Fort Worth Center
Thu 10:20:19 PM 35.0828 -95.7719 31° Northeast 417 480 35,900 950 Climbing Fort Worth Center
Thu 10:21:19 PM 35.1797 -95.7017 31° Northeast 406 467 36,800 420 Climbing Fort Worth Center
Thu 10:22:56 PM 35.3353 -95.5975 29° Northeast 405 466 37,000 61 Climbing Memphis Center
Thu 10:24:36 PM 35.4986 -95.4789 31° Northeast 420 483 37,000  Level Kansas City Center
Thu 10:25:40 PM 35.6056 -95.4036 30° Northeast 436 502 37,000  Level Kansas City Center
Thu 10:26:41 PM 35.7369 -95.3092 30° Northeast 451 519 37,000  Level Kansas City Center
Thu 10:27:42 PM 35.8506 -95.2283 30° Northeast 466 536 37,000  Level Kansas City Center
Thu 10:28:44 PM 35.9658 -95.1444 30° Northeast 478 550 37,000  Level Kansas City Center
Thu 10:29:43 PM 36.0825 -95.0597 30° Northeast 485 558 37,000  Level Kansas City Center
Thu 10:30:47 PM 36.1986 -94.9761 30° Northeast 486 559 37,000  Level Kansas City Center
Thu 10:31:46 PM 36.3136 -94.8936 30° Northeast 483 556 37,000  Level Kansas City Center
Thu 10:32:49 PM 36.4281 -94.8108 30° Northeast 481 554 37,000  Level Kansas City Center
Thu 10:33:50 PM 36.5422 -94.7272 30° Northeast 479 551 37,000  Level Kansas City Center
Thu 10:34:51 PM 36.6797 -94.6278 30° Northeast 478 550 37,000  Level Kansas City Center
Thu 10:35:51 PM 36.7931 -94.5436 31° Northeast 476 548 37,000  Level Kansas City Center
Thu 10:36:55 PM 36.9086 -94.4600 30° Northeast 478 550 37,000  Level Kansas City Center
Thu 10:37:55 PM 37.0231 -94.3769 30° Northeast 476 548 37,000  Level Kansas City Center
Thu 10:38:56 PM 37.1381 -94.2925 30° Northeast 477 549 37,000  Level Kansas City Center
Thu 10:39:57 PM 37.2503 -94.2069 31° Northeast 473 544 37,000  Level Kansas City Center
Thu 10:40:57 PM 37.3636 -94.1222 31° Northeast 474 545 37,000  Level Kansas City Center
Thu 10:41:59 PM 37.4939 -94.0228 31° Northeast 471 542 37,000  Level Kansas City Center
Thu 10:43:02 PM 37.6078 -93.9378 31° Northeast 472 543 37,000  Level Kansas City Center
Thu 10:44:03 PM 37.7211 -93.8517 31° Northeast 472 543 37,000  Level Kansas City Center
Thu 10:45:04 PM 37.8389 -93.7628 31° Northeast 482 555 37,000  Level Kansas City Center
Thu 10:46:04 PM 37.9564 -93.6736 31° Northeast 488 562 37,000  Level Kansas City Center
Thu 10:47:06 PM 38.0733 -93.5831 31° Northeast 489 563 37,000  Level Kansas City Center
Thu 10:48:08 PM 38.1931 -93.4917 31° Northeast 494 568 37,000  Level Kansas City Center
Thu 10:49:08 PM 38.3106 -93.4008 31° Northeast 492 566 37,000  Level Kansas City Center
Thu 10:50:11 PM 38.4281 -93.3106 31° Northeast 490 564 37,000  Level Kansas City Center
Thu 10:51:11 PM 38.5436 -93.2194 32° Northeast 487 560 37,000  Level Kansas City Center
Thu 10:52:12 PM 38.6603 -93.1303 31° Northeast 485 558 37,000  Level Kansas City Center
Thu 10:53:12 PM 38.7756 -93.0383 32° Northeast 484 557 37,000  Level Kansas City Center
Thu 10:54:16 PM 38.8931 -92.9436 32° Northeast 490 564 37,000  Level Kansas City Center
Thu 10:55:16 PM 39.0033 -92.8556 32° Northeast 489 563 37,000  Level Kansas City Center
Thu 10:56:18 PM 39.1397 -92.7478 31° Northeast 484 557 37,000  Level Kansas City Center
Thu 10:57:20 PM 39.2389 -92.6686 32° Northeast 485 558 37,000  Level Kansas City Center
Thu 10:58:20 PM 39.3681 -92.5675 31° Northeast 484 557 37,000  Level Kansas City Center
Thu 10:59:20 PM 39.4822 -92.4800 31° Northeast 484 557 37,000  Level Kansas City Center
Thu 11:00:23 PM 39.5975 -92.3864 32° Northeast 490 564 37,000 -145 Level Kansas City Center
Thu 11:01:24 PM 39.7122 -92.2933 32° Northeast 491 565 36,700 -439 Descending Kansas City Center
Thu 11:02:26 PM 39.8314 -92.1961 32° Northeast 504 580 36,100 -585 Descending Kansas City Center
Thu 11:03:27 PM 39.9522 -92.0978 32° Northeast 516 594 35,500 -541 Descending Kansas City Center
Thu 11:04:28 PM 40.0931 -91.9819 32° Northeast 511 588 35,000 -248 Descending Kansas City Center
Thu 11:05:28 PM 40.2094 -91.8869 32° Northeast 505 581 35,000  Level Kansas City Center
Thu 11:06:30 PM 40.3250 -91.7917 32° Northeast 500 575 35,000  Level Kansas City Center
Thu 11:07:31 PM 40.4417 -91.6947 32° Northeast 501 577 35,000  Level Kansas City Center
Thu 11:08:11 PM 40.5358 -91.6167 32° Northeast 503 579 35,000  Level Chicago Center
Thu 11:09:12 PM 40.6528 -91.5208 32° Northeast 501 577 35,000  Level Chicago Center
Thu 11:10:13 PM 40.7694 -91.4219 33° Northeast 502 578 35,000  Level Chicago Center
Thu 11:11:15 PM 40.8872 -91.3228 32° Northeast 506 582 35,000  Level Chicago Center
Thu 11:12:16 PM 41.0153 -91.2147 32° Northeast 507 583 35,000  Level Chicago Center
Thu 11:13:17 PM 41.1339 -91.1142 33° Northeast 509 586 35,000  Level Chicago Center
Thu 11:14:19 PM 41.2531 -91.0131 33° Northeast 512 589 35,000  Level Chicago Center
Thu 11:15:20 PM 41.3717 -90.9094 33° Northeast 515 593 35,000  Level Chicago Center
Thu 11:16:21 PM 41.4900 -90.8078 33° Northeast 512 589 35,000  Level Chicago Center
Thu 11:17:23 PM 41.6086 -90.7067 33° Northeast 510 587 35,000 -1,171 Level Chicago Center
Thu 11:18:24 PM 41.7492 -90.5817 34° Northeast 509 586 32,600 -2,607 Descending Chicago Center
Thu 11:19:25 PM 41.8661 -90.4803 33° Northeast 505 581 29,700 -2,902 Descending Chicago Center
Thu 11:20:26 PM 41.9817 -90.3786 33° Northeast 503 579 26,700 -2,634 Descending Chicago Center
Thu 11:21:28 PM 42.0936 -90.2817 33° Northeast 488 562 24,300 -1,317 Descending Chicago Center
Thu 11:22:29 PM 42.1972 -90.1889 34° Northeast 459 528 24,000 -148 Descending Chicago Center
Thu 11:23:30 PM 42.3036 -90.0944 33° Northeast 461 531 24,000  Level Chicago Center
Thu 11:24:31 PM 42.4358 -89.9750 34° Northeast 478 550 24,000 -1,366 Level Chicago Center
Thu 11:25:33 PM 42.5372 -89.8844 33° Northeast 448 516 21,200 -3,220 Descending Chicago Center
Thu 11:26:34 PM 42.6389 -89.7928 34° Northeast 440 506 17,400 -3,393 Descending Chicago Center
Thu 11:27:35 PM 42.7356 -89.7058 33° Northeast 419 482 14,300 -3,049 Descending Chicago Center
Thu 11:28:36 PM 42.8300 -89.6397 27° Northeast 383 441 11,200 -2,115 Descending Chicago Center
Thu 11:29:37 PM 42.9153 -89.5847 25° Northeast 336 387 10,000 -1,854 Descending Chicago Center
Thu 11:30:39 PM 42.9283 -89.4878 80° East 267 307 7,400 -2,244 Descending Chicago Center
Thu 11:31:40 PM 42.9200 -89.3892 97° East 262 302 5,400 -1,967 Descending Chicago Center

Login

Don't have an account? Register now (free) for customized features, flight alerts, and more!